Time;durP1;ratioP1;P1;durP2;ratioP2;P2;SDS_P1;SDS_P2;PMS_P1;PMS_P2;Temp;Humidity;BMP_temperature;BMP_pressure;BME280_temperature;BME280_humidity;BME280_pressure;Samples;Min_cycle;Max_cycle;Signal;HPM_P1;HPM_P2
2022/04/01 00:01:53;;;;;;;;;0.75;0.75;;;;;;;;5080377;27;45482;-86
2022/04/01 00:04:18;;;;;;;;;2.25;0.25;;;;;;;;5081528;27;45485;-86
2022/04/01 00:06:43;;;;;;;;;1.00;1.00;;;;;;;;5079179;27;45561;-87
2022/04/01 00:09:08;;;;;;;;;1.00;1.00;;;;;;;;5079774;27;45535;-86
2022/04/01 00:11:34;;;;;;;;;2.00;1.00;;;;;;;;5077891;27;45705;-87
2022/04/01 00:13:59;;;;;;;;;3.75;1.25;;;;;;;;5084723;27;45522;-86
2022/04/01 00:16:24;;;;;;;;;1.00;1.00;;;;;;;;5089888;27;46545;-86
2022/04/01 00:18:49;;;;;;;;;0.00;0.00;;;;;;;;5089978;27;45355;-86
2022/04/01 00:21:14;;;;;;;;;1.00;1.00;;;;;;;;5091526;27;45447;-85
2022/04/01 00:23:40;;;;;;;;;4.00;1.25;;;;;;;;5088523;27;45370;-85
2022/04/01 00:26:05;;;;;;;;;1.00;1.00;;;;;;;;5079927;27;45452;-84
2022/04/01 00:28:30;;;;;;;;;0.75;0.00;;;;;;;;5088923;27;45477;-85
2022/04/01 00:30:55;;;;;;;;;1.00;0.00;;;;;;;;5085284;27;45445;-84
2022/04/01 00:33:21;;;;;;;;;0.00;0.00;;;;;;;;5081614;27;45459;-86
2022/04/01 00:35:46;;;;;;;;;0.50;0.50;;;;;;;;5086343;27;46698;-86
2022/04/01 00:38:12;;;;;;;;;3.00;1.50;;;;;;;;5082714;27;45446;-84
2022/04/01 00:40:37;;;;;;;;;0.00;0.00;;;;;;;;5084632;27;45401;-85
2022/04/01 00:43:03;;;;;;;;;2.00;1.00;;;;;;;;5085126;27;45519;-86
2022/04/01 00:45:28;;;;;;;;;0.75;0.75;;;;;;;;5089922;27;48610;-86
2022/04/01 00:47:55;;;;;;;;;1.00;1.00;;;;;;;;5092050;27;45643;-86
2022/04/01 00:50:22;;;;;;;;;0.75;0.75;;;;;;;;5082957;27;47446;-86
2022/04/01 00:52:48;;;;;;;;;15.00;12.50;;;;;;;;5083897;27;45464;-87
2022/04/01 00:55:13;;;;;;;;;0.00;0.00;;;;;;;;5078913;27;46620;-84
2022/04/01 00:57:38;;;;;;;;;4.75;1.50;;;;;;;;5090793;27;45966;-85
2022/04/01 01:00:07;;;;;;;;;1.00;0.00;;;;;;;;5087662;27;45331;-85
2022/04/01 01:02:34;;;;;;;;;0.00;0.00;;;;;;;;5093477;27;45448;-85
2022/04/01 01:04:59;;;;;;;;;1.00;1.00;;;;;;;;5083036;27;48474;-86
2022/04/01 01:07:25;;;;;;;;;0.00;0.00;;;;;;;;5083099;27;45572;-86
2022/04/01 01:09:50;;;;;;;;;1.00;1.00;;;;;;;;5083066;27;45301;-86
2022/04/01 01:12:17;;;;;;;;;0.25;0.25;;;;;;;;5082700;27;45395;-86
2022/04/01 01:14:44;;;;;;;;;0.00;0.00;;;;;;;;5073614;27;47379;-86
2022/04/01 01:17:11;;;;;;;;;0.50;0.50;;;;;;;;5074286;27;45365;-85
2022/04/01 01:19:37;;;;;;;;;1.00;1.00;;;;;;;;5084145;27;45488;-87
2022/04/01 01:22:02;;;;;;;;;0.25;0.25;;;;;;;;5074549;27;45530;-86
2022/04/01 01:24:38;;;;;;;;;3.00;2.00;;;;;;;;5076464;27;45456;-86
2022/04/01 01:27:06;;;;;;;;;1.75;0.00;;;;;;;;5075060;27;45361;-87
2022/04/01 01:29:32;;;;;;;;;4.25;1.50;;;;;;;;5081142;27;45358;-86
2022/04/01 01:31:59;;;;;;;;;0.00;0.00;;;;;;;;5083909;27;45295;-87
2022/04/01 01:34:24;;;;;;;;;1.00;1.00;;;;;;;;5082913;27;46752;-87
2022/04/01 01:36:51;;;;;;;;;0.25;0.25;;;;;;;;5079399;27;45559;-86
2022/04/01 01:39:17;;;;;;;;;1.00;0.00;;;;;;;;5090700;27;45511;-84
2022/04/01 01:41:43;;;;;;;;;0.25;0.00;;;;;;;;5085716;27;45410;-85
2022/04/01 01:44:08;;;;;;;;;1.00;1.00;;;;;;;;5088050;27;45489;-86
2022/04/01 01:46:34;;;;;;;;;1.50;1.50;;;;;;;;5079715;27;45267;-84
2022/04/01 01:49:00;;;;;;;;;1.00;1.00;;;;;;;;5088285;27;46313;-87
2022/04/01 01:56:53;;;;;;;;;1.00;1.00;;;;;;;;5078057;27;45475;-85
2022/04/01 01:59:18;;;;;;;;;1.00;0.50;;;;;;;;5074022;27;45311;-86
2022/04/01 02:01:43;;;;;;;;;0.25;0.25;;;;;;;;5079803;27;45301;-85
2022/04/01 02:04:09;;;;;;;;;0.50;0.50;;;;;;;;5079947;27;46469;-85
2022/04/01 02:06:35;;;;;;;;;5.00;1.00;;;;;;;;5081041;27;45559;-85
2022/04/01 02:09:00;;;;;;;;;2.00;0.00;;;;;;;;5091438;27;45332;-85
2022/04/01 02:11:25;;;;;;;;;1.00;1.00;;;;;;;;5094246;27;45466;-84
2022/04/01 02:13:51;;;;;;;;;1.00;1.00;;;;;;;;5089139;27;46356;-85
2022/04/01 02:16:16;;;;;;;;;1.25;1.25;;;;;;;;5086590;27;45572;-87
2022/04/01 02:18:42;;;;;;;;;1.50;0.75;;;;;;;;5082080;27;45497;-86
2022/04/01 02:21:15;;;;;;;;;1.25;1.25;;;;;;;;5080714;27;45541;-86
2022/04/01 02:23:41;;;;;;;;;1.25;1.25;;;;;;;;5086437;27;48594;-86
2022/04/01 02:26:07;;;;;;;;;1.50;1.50;;;;;;;;5078448;27;45369;-86
2022/04/01 02:28:33;;;;;;;;;1.75;1.75;;;;;;;;5086532;27;45689;-86
2022/04/01 02:30:58;;;;;;;;;2.00;1.75;;;;;;;;5084258;27;45338;-86
2022/04/01 02:33:23;;;;;;;;;2.75;1.00;;;;;;;;5089293;27;45597;-86
2022/04/01 02:35:50;;;;;;;;;2.00;2.00;;;;;;;;5093547;27;45610;-86
2022/04/01 02:38:15;;;;;;;;;2.00;2.00;;;;;;;;5085049;27;45421;-85
2022/04/01 02:40:40;;;;;;;;;2.00;2.00;;;;;;;;5083392;27;45389;-86
2022/04/01 02:43:06;;;;;;;;;7.50;4.00;;;;;;;;5088701;27;45611;-86
2022/04/01 02:45:31;;;;;;;;;4.50;3.00;;;;;;;;5093972;27;45361;-86
2022/04/01 02:47:57;;;;;;;;;3.75;2.25;;;;;;;;5084354;27;45520;-86
2022/04/01 02:50:22;;;;;;;;;3.00;3.00;;;;;;;;5083798;27;45725;-87
2022/04/01 02:52:48;;;;;;;;;2.75;2.00;;;;;;;;5093894;27;47143;-87
2022/04/01 02:55:13;;;;;;;;;5.75;3.00;;;;;;;;5094328;27;45386;-86
2022/04/01 02:57:38;;;;;;;;;2.25;1.25;;;;;;;;5092041;27;46177;-86
2022/04/01 03:00:09;;;;;;;;;3.00;3.00;;;;;;;;5091794;27;45359;-87
2022/04/01 03:02:34;;;;;;;;;4.00;3.25;;;;;;;;5089933;27;47504;-85
2022/04/01 03:04:59;;;;;;;;;6.00;5.00;;;;;;;;5088997;27;45689;-85
2022/04/01 03:07:25;;;;;;;;;2.25;2.25;;;;;;;;5080017;27;45563;-86
2022/04/01 03:09:50;;;;;;;;;5.00;5.00;;;;;;;;5083722;27;46226;-86
2022/04/01 03:12:16;;;;;;;;;5.00;5.00;;;;;;;;5077088;27;46607;-85
2022/04/01 03:14:41;;;;;;;;;2.00;2.00;;;;;;;;5077329;27;45863;-85
2022/04/01 03:17:08;;;;;;;;;4.00;4.00;;;;;;;;5089587;27;46085;-86
2022/04/01 03:19:34;;;;;;;;;2.00;2.00;;;;;;;;5076549;27;45528;-86
2022/04/01 03:22:00;;;;;;;;;1.75;1.75;;;;;;;;5081509;27;48058;-86
2022/04/01 03:24:25;;;;;;;;;10.00;2.50;;;;;;;;5089356;27;45529;-86
2022/04/01 03:26:51;;;;;;;;;3.00;1.00;;;;;;;;5087887;27;45542;-85
2022/04/01 03:29:16;;;;;;;;;1.50;1.00;;;;;;;;5084520;27;45339;-85
2022/04/01 03:31:42;;;;;;;;;2.00;2.00;;;;;;;;5077315;27;47427;-85
2022/04/01 03:34:07;;;;;;;;;5.75;3.50;;;;;;;;5077135;27;46021;-86
2022/04/01 03:36:33;;;;;;;;;4.25;4.25;;;;;;;;5076378;27;45646;-85
2022/04/01 03:38:59;;;;;;;;;4.25;2.50;;;;;;;;5082315;27;45366;-85
2022/04/01 03:41:24;;;;;;;;;2.50;2.50;;;;;;;;5091791;27;46486;-86
2022/04/01 03:43:52;;;;;;;;;4.75;4.75;;;;;;;;5077910;27;45314;-86
2022/04/01 03:46:18;;;;;;;;;4.50;4.50;;;;;;;;5074476;27;45520;-86
2022/04/01 03:49:03;;;;;;;;;1.00;1.00;;;;;;;;5081186;27;45567;-86
2022/04/01 03:51:29;;;;;;;;;3.00;2.00;;;;;;;;5083146;27;47668;-85
2022/04/01 03:53:55;;;;;;;;;2.00;2.00;;;;;;;;5083675;27;45404;-86
2022/04/01 03:56:22;;;;;;;;;2.25;2.25;;;;;;;;5081216;27;45567;-85
2022/04/01 03:58:48;;;;;;;;;3.00;1.00;;;;;;;;5088238;27;45412;-85
2022/04/01 04:01:13;;;;;;;;;2.75;2.75;;;;;;;;5083658;27;46024;-85
2022/04/01 04:03:38;;;;;;;;;5.00;3.00;;;;;;;;5094529;27;45465;-85
2022/04/01 04:06:09;;;;;;;;;2.00;2.00;;;;;;;;5090922;27;45402;-86
2022/04/01 04:08:36;;;;;;;;;2.50;2.50;;;;;;;;5078756;27;45629;-86
2022/04/01 04:11:02;;;;;;;;;1.75;1.75;;;;;;;;5093214;27;46665;-86
2022/04/01 04:13:27;;;;;;;;;1.25;1.25;;;;;;;;5082339;27;45469;-86
2022/04/01 04:16:04;;;;;;;;;2.00;2.00;;;;;;;;5079546;27;45457;-86
2022/04/01 04:18:34;;;;;;;;;1.00;1.00;;;;;;;;5082151;27;45503;-87
2022/04/01 04:20:59;;;;;;;;;1.00;1.00;;;;;;;;5081037;27;46452;-86
2022/04/01 04:23:29;;;;;;;;;2.50;1.25;;;;;;;;5076839;27;45346;-86
2022/04/01 04:25:54;;;;;;;;;1.00;1.00;;;;;;;;5094600;27;45400;-86
2022/04/01 04:28:23;;;;;;;;;1.80;1.00;;;;;;;;5090629;27;45510;-86
2022/04/01 04:30:53;;;;;;;;;1.00;1.00;;;;;;;;5088678;27;48015;-87
2022/04/01 04:33:20;;;;;;;;;0.25;0.25;;;;;;;;5091538;27;45652;-86
2022/04/01 04:35:48;;;;;;;;;1.00;1.00;;;;;;;;5079350;27;45477;-87
2022/04/01 04:38:14;;;;;;;;;2.00;2.00;;;;;;;;5079611;27;45377;-87
2022/04/01 04:40:41;;;;;;;;;1.00;1.00;;;;;;;;5094129;27;46399;-86
2022/04/01 04:43:07;;;;;;;;;1.25;1.25;;;;;;;;5093184;27;45427;-87
2022/04/01 04:45:32;;;;;;;;;1.50;1.50;;;;;;;;5093547;27;45402;-86
2022/04/01 04:47:57;;;;;;;;;2.00;2.00;;;;;;;;5094749;27;45408;-86
2022/04/01 04:50:23;;;;;;;;;1.75;1.75;;;;;;;;5094700;27;45433;-86
2022/04/01 04:52:50;;;;;;;;;2.75;2.75;;;;;;;;5096662;27;45475;-86
2022/04/01 04:55:19;;;;;;;;;1.75;1.75;;;;;;;;5094167;27;45514;-87
2022/04/01 04:57:45;;;;;;;;;2.50;2.50;;;;;;;;5093661;27;45548;-87
2022/04/01 05:00:12;;;;;;;;;2.75;2.75;;;;;;;;5093837;27;45610;-87
2022/04/01 05:02:43;;;;;;;;;2.00;2.00;;;;;;;;5092550;27;46422;-86
2022/04/01 05:05:11;;;;;;;;;2.00;2.00;;;;;;;;5093825;27;45393;-89
2022/04/01 05:07:37;;;;;;;;;2.25;2.25;;;;;;;;5091756;27;45316;-88
2022/04/01 05:10:18;;;;;;;;;2.00;2.00;;;;;;;;5091262;27;47294;-89
2022/04/01 05:12:46;;;;;;;;;2.00;2.00;;;;;;;;5090594;27;46099;-87
2022/04/01 05:15:15;;;;;;;;;2.25;2.25;;;;;;;;5092732;27;45339;-88
2022/04/01 05:17:52;;;;;;;;;2.00;2.00;;;;;;;;5092598;27;45639;-88
2022/04/01 05:20:23;;;;;;;;;5.50;3.00;;;;;;;;5093553;27;46812;-88
2022/04/01 05:22:58;;;;;;;;;2.00;2.00;;;;;;;;5095658;27;45497;-88
2022/04/01 05:25:27;;;;;;;;;6.00;3.00;;;;;;;;5093522;27;45454;-88
2022/04/01 05:27:53;;;;;;;;;2.50;1.00;;;;;;;;5093200;27;45541;-87
2022/04/01 05:30:21;;;;;;;;;2.00;2.00;;;;;;;;5093314;27;45556;-86
2022/04/01 05:32:57;;;;;;;;;3.00;3.00;;;;;;;;5105210;27;45494;-87
2022/04/01 05:35:24;;;;;;;;;2.75;2.75;;;;;;;;5093486;27;45227;-86
2022/04/01 05:37:49;;;;;;;;;3.00;3.00;;;;;;;;5095603;27;45543;-87
2022/04/01 05:40:16;;;;;;;;;2.00;2.00;;;;;;;;5092435;27;48343;-87
2022/04/01 05:42:42;;;;;;;;;2.75;2.75;;;;;;;;5093129;27;45398;-87
2022/04/01 05:45:08;;;;;;;;;2.00;2.00;;;;;;;;5094000;27;45464;-87
2022/04/01 05:47:35;;;;;;;;;1.75;1.75;;;;;;;;5093694;27;45457;-87
2022/04/01 05:50:01;;;;;;;;;1.50;1.00;;;;;;;;5094583;27;48093;-87
2022/04/01 05:52:27;;;;;;;;;5.00;2.00;;;;;;;;5092143;27;45470;-86
2022/04/01 05:54:54;;;;;;;;;1.00;1.00;;;;;;;;5093656;27;46993;-87
2022/04/01 05:57:20;;;;;;;;;4.00;2.00;;;;;;;;5093613;27;45342;-86
2022/04/01 05:59:45;;;;;;;;;2.75;2.00;;;;;;;;5093567;27;45634;-87
2022/04/01 06:02:36;;;;;;;;;3.00;3.00;;;;;;;;5091293;27;45616;-85
2022/04/01 06:05:09;;;;;;;;;3.00;3.00;;;;;;;;5095683;27;45379;-86
2022/04/01 06:07:49;;;;;;;;;2.75;2.75;;;;;;;;5088157;27;45429;-84
2022/04/01 06:10:20;;;;;;;;;5.75;5.00;;;;;;;;5092768;27;46535;-87
2022/04/01 06:13:04;;;;;;;;;5.00;4.00;;;;;;;;5089672;27;45854;-86
2022/04/01 06:15:35;;;;;;;;;4.00;4.00;;;;;;;;5089729;27;45468;-87
2022/04/01 06:18:03;;;;;;;;;5.00;4.50;;;;;;;;5092318;27;45742;-87
2022/04/01 06:20:32;;;;;;;;;3.75;3.00;;;;;;;;5091202;27;45566;-87
2022/04/01 06:23:06;;;;;;;;;0.75;0.75;;;;;;;;5094754;27;45343;-87
2022/04/01 06:25:34;;;;;;;;;3.00;3.00;;;;;;;;5088390;27;45679;-87
2022/04/01 06:28:16;;;;;;;;;7.75;6.00;;;;;;;;5090727;27;45526;-87
2022/04/01 06:30:43;;;;;;;;;5.75;5.75;;;;;;;;5099823;27;45713;-87
2022/04/01 06:33:08;;;;;;;;;5.00;5.00;;;;;;;;5088796;27;45546;-88
2022/04/01 06:35:38;;;;;;;;;5.00;5.00;;;;;;;;5082437;27;45295;-87
2022/04/01 06:38:05;;;;;;;;;7.25;5.00;;;;;;;;5090842;27;45435;-87
2022/04/01 06:40:52;;;;;;;;;5.75;5.75;;;;;;;;5091292;27;46783;-87
2022/04/01 06:43:17;;;;;;;;;6.75;6.00;;;;;;;;5092745;27;45557;-88
2022/04/01 06:45:42;;;;;;;;;5.00;5.00;;;;;;;;5090537;27;45500;-86
2022/04/01 06:48:11;;;;;;;;;6.00;3.50;;;;;;;;5091534;27;45529;-88
2022/04/01 06:50:41;;;;;;;;;7.50;6.00;;;;;;;;5093302;27;47092;-87
2022/04/01 06:53:06;;;;;;;;;5.75;5.25;;;;;;;;5094796;27;45617;-88
2022/04/01 06:55:31;;;;;;;;;7.75;7.75;;;;;;;;5094856;27;45921;-88
2022/04/01 06:57:56;;;;;;;;;2.50;2.50;;;;;;;;5092044;27;46754;-87
2022/04/01 07:00:26;;;;;;;;;7.50;6.00;;;;;;;;5095239;27;45658;-88
2022/04/01 07:02:51;;;;;;;;;5.75;5.75;;;;;;;;5094064;27;45655;-87
2022/04/01 07:05:16;;;;;;;;;6.00;6.00;;;;;;;;5095937;27;45382;-85
2022/04/01 07:07:42;;;;;;;;;4.50;4.50;;;;;;;;5095193;27;46406;-86
2022/04/01 07:10:09;;;;;;;;;5.25;5.25;;;;;;;;5091894;27;45664;-86
2022/04/01 07:12:35;;;;;;;;;9.25;7.00;;;;;;;;5092591;27;45537;-85
2022/04/01 07:15:00;;;;;;;;;5.75;4.50;;;;;;;;5093095;27;45382;-84
2022/04/01 07:17:25;;;;;;;;;7.00;7.00;;;;;;;;5093896;27;45302;-85
2022/04/01 07:19:51;;;;;;;;;8.50;5.75;;;;;;;;5094217;27;45309;-85
2022/04/01 07:22:16;;;;;;;;;5.25;5.25;;;;;;;;5095924;27;45537;-88
2022/04/01 07:24:42;;;;;;;;;9.50;6.75;;;;;;;;5093277;27;45560;-84
2022/04/01 07:27:08;;;;;;;;;6.25;6.25;;;;;;;;5094686;27;45382;-84
2022/04/01 07:29:33;;;;;;;;;9.75;9.75;;;;;;;;5092255;27;47983;-84
2022/04/01 07:34:43;;;;;;;;;10.25;8.00;;;;;;;;5096803;27;45283;-85
2022/04/01 07:37:09;;;;;;;;;9.00;9.00;;;;;;;;5094123;27;45416;-84
2022/04/01 07:39:35;;;;;;;;;7.00;7.00;;;;;;;;5094757;27;46202;-84
2022/04/01 07:42:00;;;;;;;;;13.50;10.00;;;;;;;;5094695;27;45449;-85
2022/04/01 07:44:26;;;;;;;;;6.75;6.75;;;;;;;;5094959;27;45450;-86
2022/04/01 07:46:51;;;;;;;;;10.25;8.50;;;;;;;;5098693;27;45439;-84
2022/04/01 07:49:17;;;;;;;;;10.25;9.25;;;;;;;;5094977;27;46143;-86
2022/04/01 07:51:43;;;;;;;;;7.75;7.75;;;;;;;;5092280;27;46216;-87
2022/04/01 07:54:09;;;;;;;;;10.00;9.00;;;;;;;;5094122;27;45494;-85
2022/04/01 07:56:36;;;;;;;;;9.00;9.00;;;;;;;;5093886;27;45499;-85
2022/04/01 07:59:01;;;;;;;;;11.00;11.00;;;;;;;;5094636;27;45520;-85
2022/04/01 08:01:26;;;;;;;;;10.25;10.25;;;;;;;;5092476;27;45829;-85
2022/04/01 08:03:52;;;;;;;;;10.25;10.25;;;;;;;;5093899;27;45326;-85
2022/04/01 08:06:17;;;;;;;;;11.25;10.50;;;;;;;;5094700;27;45448;-86
2022/04/01 08:08:42;;;;;;;;;13.25;10.75;;;;;;;;5100245;27;46237;-85
2022/04/01 08:11:08;;;;;;;;;13.50;11.75;;;;;;;;5095381;27;45304;-87
2022/04/01 08:13:33;;;;;;;;;13.00;11.00;;;;;;;;5090217;27;45473;-86
2022/04/01 08:15:59;;;;;;;;;10.00;9.75;;;;;;;;5092878;27;45399;-86
2022/04/01 08:18:24;;;;;;;;;13.50;10.50;;;;;;;;5083760;27;48389;-86
2022/04/01 08:20:50;;;;;;;;;14.75;14.50;;;;;;;;5091379;27;45547;-87
2022/04/01 08:23:15;;;;;;;;;14.00;12.25;;;;;;;;5092504;27;45520;-88
2022/04/01 08:25:40;;;;;;;;;13.75;13.75;;;;;;;;5097059;27;45443;-87
2022/04/01 08:28:06;;;;;;;;;14.00;12.75;;;;;;;;5091785;27;48062;-87
2022/04/01 08:30:34;;;;;;;;;11.00;11.00;;;;;;;;5089127;27;45494;-87
2022/04/01 08:32:59;;;;;;;;;14.25;12.75;;;;;;;;5094974;27;45527;-87
2022/04/01 08:35:24;;;;;;;;;11.00;11.00;;;;;;;;5093223;27;45303;-87
2022/04/01 08:37:49;;;;;;;;;11.50;11.00;;;;;;;;5093089;27;47009;-87
2022/04/01 08:40:15;;;;;;;;;16.50;14.00;;;;;;;;5091623;27;46295;-87
2022/04/01 08:42:47;;;;;;;;;15.00;13.25;;;;;;;;5089478;27;45483;-87
2022/04/01 08:45:12;;;;;;;;;14.00;14.00;;;;;;;;5097854;27;45682;-88
2022/04/01 08:47:38;;;;;;;;;14.25;14.25;;;;;;;;5089109;27;46659;-87
2022/04/01 08:50:04;;;;;;;;;18.00;16.50;;;;;;;;5094547;27;45442;-87
2022/04/01 08:52:29;;;;;;;;;11.50;11.50;;;;;;;;5093436;27;45521;-88
2022/04/01 08:54:55;;;;;;;;;14.50;14.50;;;;;;;;5088095;27;45452;-87
2022/04/01 08:57:21;;;;;;;;;12.00;12.00;;;;;;;;5091781;27;48510;-87
2022/04/01 08:59:47;;;;;;;;;18.50;15.75;;;;;;;;5092748;27;45778;-88
2022/04/01 09:02:12;;;;;;;;;17.75;16.25;;;;;;;;5093911;27;45661;-88
2022/04/01 09:04:37;;;;;;;;;16.00;14.25;;;;;;;;5091500;27;45592;-88
2022/04/01 09:07:13;;;;;;;;;20.00;19.00;;;;;;;;5089819;27;47259;-88
2022/04/01 09:09:38;;;;;;;;;16.75;14.00;;;;;;;;5085668;27;45473;-88
2022/04/01 09:12:05;;;;;;;;;15.00;14.50;;;;;;;;5093120;27;45433;-87
2022/04/01 09:14:30;;;;;;;;;17.75;14.00;;;;;;;;5091205;27;45425;-88
2022/04/01 09:16:56;;;;;;;;;15.75;15.25;;;;;;;;5094576;27;45405;-86
2022/04/01 09:19:27;;;;;;;;;13.00;11.00;;;;;;;;5093346;27;45495;-87
2022/04/01 09:21:53;;;;;;;;;19.50;16.25;;;;;;;;5092323;27;45426;-87
2022/04/01 09:24:18;;;;;;;;;12.00;12.00;;;;;;;;5097899;27;45481;-87
2022/04/01 09:26:44;;;;;;;;;16.75;14.75;;;;;;;;5097523;27;46423;-87
2022/04/01 09:29:10;;;;;;;;;13.00;13.00;;;;;;;;5095181;27;45298;-86
2022/04/01 09:31:37;;;;;;;;;14.50;14.50;;;;;;;;5094419;27;45380;-87
2022/04/01 09:34:06;;;;;;;;;15.75;15.75;;;;;;;;5092647;27;45389;-87
2022/04/01 09:36:33;;;;;;;;;17.75;14.75;;;;;;;;5093377;27;45719;-87
2022/04/01 09:39:07;;;;;;;;;16.50;16.50;;;;;;;;5085572;27;45247;-87
2022/04/01 09:41:37;;;;;;;;;15.00;12.50;;;;;;;;5090837;27;47109;-87
2022/04/01 09:44:03;;;;;;;;;17.25;15.50;;;;;;;;5089354;27;45647;-88
2022/04/01 09:46:28;;;;;;;;;17.25;16.75;;;;;;;;5090101;27;47760;-81
2022/04/01 09:48:58;;;;;;;;;21.50;19.75;;;;;;;;5086152;27;46254;-88
2022/04/01 09:51:24;;;;;;;;;12.75;12.75;;;;;;;;5092802;27;45543;-88
2022/04/01 09:53:53;;;;;;;;;18.50;15.00;;;;;;;;5092059;27;45439;-88
2022/04/01 09:56:22;;;;;;;;;13.50;13.50;;;;;;;;5093344;27;45504;-87
2022/04/01 09:58:47;;;;;;;;;17.25;17.25;;;;;;;;5095538;27;45366;-87
2022/04/01 10:01:12;;;;;;;;;14.25;12.25;;;;;;;;5093084;27;45427;-88
2022/04/01 10:03:38;;;;;;;;;13.50;13.50;;;;;;;;5091496;27;45444;-86
2022/04/01 10:06:03;;;;;;;;;16.50;14.50;;;;;;;;5093136;27;45597;-87
2022/04/01 10:08:28;;;;;;;;;17.50;13.50;;;;;;;;5092744;27;45595;-87
2022/04/01 10:10:54;;;;;;;;;18.50;15.75;;;;;;;;5093498;27;45310;-87
2022/04/01 10:13:30;;;;;;;;;16.00;15.00;;;;;;;;5092369;27;45453;-88
2022/04/01 10:15:56;;;;;;;;;21.00;16.25;;;;;;;;5091940;27;45420;-86
2022/04/01 10:18:23;;;;;;;;;15.75;14.75;;;;;;;;5092002;27;45412;-87
2022/04/01 10:20:48;;;;;;;;;16.00;14.25;;;;;;;;5092403;27;45511;-87
2022/04/01 10:23:14;;;;;;;;;17.00;14.75;;;;;;;;5093231;27;45620;-87
2022/04/01 10:25:59;;;;;;;;;14.75;14.75;;;;;;;;5096717;27;45432;-89
2022/04/01 10:28:25;;;;;;;;;16.00;14.50;;;;;;;;5093407;27;45459;-87
2022/04/01 10:30:55;;;;;;;;;15.25;13.75;;;;;;;;5095274;27;45456;-88
2022/04/01 10:33:25;;;;;;;;;20.75;18.00;;;;;;;;5094642;27;45485;-88
2022/04/01 10:35:50;;;;;;;;;14.75;14.00;;;;;;;;5092698;27;47988;-88
2022/04/01 10:38:20;;;;;;;;;15.00;14.00;;;;;;;;5096802;27;45216;-88
2022/04/01 10:40:50;;;;;;;;;11.00;10.00;;;;;;;;5095292;27;45514;-87
2022/04/01 10:43:18;;;;;;;;;15.50;15.00;;;;;;;;5096417;27;45455;-87
2022/04/01 10:45:59;;;;;;;;;21.75;17.25;;;;;;;;5095649;27;45477;-88
2022/04/01 10:51:37;;;;;;;;;20.25;16.75;;;;;;;;5092859;27;45474;-87
2022/04/01 10:54:22;;;;;;;;;13.50;13.50;;;;;;;;5096058;27;45465;-88
2022/04/01 10:56:53;;;;;;;;;16.75;13.50;;;;;;;;5069335;27;45454;-86
2022/04/01 10:59:22;;;;;;;;;16.50;16.50;;;;;;;;5096200;27;45498;-87
2022/04/01 11:01:53;;;;;;;;;15.00;13.25;;;;;;;;5102340;27;45366;-87
2022/04/01 11:04:18;;;;;;;;;19.25;15.25;;;;;;;;5104742;27;45499;-87
2022/04/01 11:07:02;;;;;;;;;15.25;15.25;;;;;;;;5099211;27;48021;-85
2022/04/01 11:09:45;;;;;;;;;13.75;13.50;;;;;;;;5096618;27;45385;-85
2022/04/01 11:12:19;;;;;;;;;15.75;14.00;;;;;;;;5096032;27;45368;-85
2022/04/01 11:14:53;;;;;;;;;17.25;16.00;;;;;;;;5094523;27;45476;-85
2022/04/01 11:17:19;;;;;;;;;16.00;15.00;;;;;;;;5107549;27;47218;-86
2022/04/01 11:20:02;;;;;;;;;16.00;13.25;;;;;;;;5097317;27;45652;-87
2022/04/01 11:22:34;;;;;;;;;14.00;14.00;;;;;;;;5094312;27;45382;-85
2022/04/01 11:24:59;;;;;;;;;20.25;15.00;;;;;;;;5100046;27;45788;-87
2022/04/01 11:27:25;;;;;;;;;15.00;15.00;;;;;;;;5105479;27;46240;-86
2022/04/01 11:30:02;;;;;;;;;19.00;16.50;;;;;;;;5079681;27;45481;-87
2022/04/01 11:32:27;;;;;;;;;16.50;16.50;;;;;;;;5094956;27;45464;-87
2022/04/01 11:34:55;;;;;;;;;12.00;12.00;;;;;;;;5095424;27;45378;-86
2022/04/01 11:37:20;;;;;;;;;18.75;15.50;;;;;;;;5090543;27;47315;-87
2022/04/01 11:39:45;;;;;;;;;12.00;12.00;;;;;;;;5092723;27;45461;-87
2022/04/01 11:42:10;;;;;;;;;16.50;13.25;;;;;;;;5081961;27;45472;-87
2022/04/01 11:44:36;;;;;;;;;13.00;12.25;;;;;;;;5093872;27;45516;-87
2022/04/01 11:47:01;;;;;;;;;15.50;14.25;;;;;;;;5097397;27;45270;-87
2022/04/01 11:49:26;;;;;;;;;16.00;14.75;;;;;;;;5090228;27;45713;-86
2022/04/01 11:51:52;;;;;;;;;13.25;13.00;;;;;;;;5093903;27;45270;-88
2022/04/01 11:54:19;;;;;;;;;12.50;11.50;;;;;;;;5091626;27;45334;-87
2022/04/01 11:56:45;;;;;;;;;12.00;12.00;;;;;;;;5095507;27;45966;-87
2022/04/01 11:59:10;;;;;;;;;15.75;12.50;;;;;;;;5093179;27;45461;-87
2022/04/01 12:01:54;;;;;;;;;14.00;14.00;;;;;;;;5087697;27;45492;-86
2022/04/01 12:04:30;;;;;;;;;11.00;10.25;;;;;;;;5093882;27;45510;-87
2022/04/01 12:09:41;;;;;;;;;14.50;12.50;;;;;;;;5094923;27;45472;-90
2022/04/01 12:12:08;;;;;;;;;14.75;14.25;;;;;;;;5087466;27;45426;-89
2022/04/01 12:14:34;;;;;;;;;10.25;9.75;;;;;;;;5090021;27;45722;-90
2022/04/01 12:17:03;;;;;;;;;12.50;12.00;;;;;;;;5086891;27;47331;-89
2022/04/01 12:19:30;;;;;;;;;16.00;14.00;;;;;;;;5095481;27;47474;-88
2022/04/01 12:21:56;;;;;;;;;6.00;6.00;;;;;;;;5093064;27;45489;-89
2022/04/01 12:24:22;;;;;;;;;15.75;15.00;;;;;;;;5091932;27;45484;-88
2022/04/01 12:26:48;;;;;;;;;17.25;16.50;;;;;;;;5083159;27;46613;-91
2022/04/01 12:29:20;;;;;;;;;15.25;14.50;;;;;;;;5087711;27;45803;-92
2022/04/01 12:31:49;;;;;;;;;21.00;19.75;;;;;;;;5088005;27;45520;-92
2022/04/01 12:34:14;;;;;;;;;14.00;13.75;;;;;;;;5084415;27;45457;-91
2022/04/01 12:36:39;;;;;;;;;18.50;16.25;;;;;;;;5096217;27;46812;-89
2022/04/01 12:39:11;;;;;;;;;18.50;16.00;;;;;;;;5091221;27;46972;-91
2022/04/01 12:41:48;;;;;;;;;15.25;15.25;;;;;;;;5088241;27;45350;-91
2022/04/01 12:44:13;;;;;;;;;19.25;16.00;;;;;;;;5091316;27;45538;-90
2022/04/01 12:46:39;;;;;;;;;19.00;16.50;;;;;;;;5106518;27;47242;-91
2022/04/01 12:49:14;;;;;;;;;19.00;15.75;;;;;;;;5097766;27;45439;-91
2022/04/01 12:51:40;;;;;;;;;16.00;16.00;;;;;;;;5093581;27;45439;-92
2022/04/01 12:54:09;;;;;;;;;16.75;13.50;;;;;;;;5092377;27;45558;-91
2022/04/01 12:56:44;;;;;;;;;12.50;11.75;;;;;;;;5086663;27;47190;-90
2022/04/01 12:59:12;;;;;;;;;13.50;12.50;;;;;;;;5093226;27;45475;-90
2022/04/01 13:01:38;;;;;;;;;14.75;14.75;;;;;;;;5087942;27;45675;-89
2022/04/01 13:04:05;;;;;;;;;13.50;13.50;;;;;;;;5087875;27;45369;-88
2022/04/01 13:06:30;;;;;;;;;17.25;17.25;;;;;;;;5091353;27;46482;-89
2022/04/01 13:09:00;;;;;;;;;18.75;15.25;;;;;;;;5091167;27;45836;-89
2022/04/01 13:11:36;;;;;;;;;15.50;15.50;;;;;;;;5093901;27;47718;-91
2022/04/01 13:14:02;;;;;;;;;14.75;14.75;;;;;;;;5085961;27;45429;-91
2022/04/01 13:16:34;;;;;;;;;15.25;15.25;;;;;;;;5091141;27;48466;-90
2022/04/01 13:19:19;;;;;;;;;14.75;13.00;;;;;;;;5092101;27;45347;-90
2022/04/01 13:21:45;;;;;;;;;14.50;14.00;;;;;;;;5093824;27;45433;-91
2022/04/01 13:24:10;;;;;;;;;20.00;20.00;;;;;;;;5092155;27;45655;-90
2022/04/01 13:26:36;;;;;;;;;20.75;19.00;;;;;;;;5081205;27;47238;-89
2022/04/01 13:29:01;;;;;;;;;13.75;13.75;;;;;;;;5090598;27;45322;-90
2022/04/01 13:31:26;;;;;;;;;21.25;16.50;;;;;;;;5091507;27;45380;-90
2022/04/01 13:33:51;;;;;;;;;23.25;21.75;;;;;;;;5088134;27;45608;-94
2022/04/01 13:36:16;;;;;;;;;19.50;19.00;;;;;;;;5091607;27;47733;-92
2022/04/01 13:38:45;;;;;;;;;13.75;13.75;;;;;;;;5093185;27;45506;-93
2022/04/01 13:41:10;;;;;;;;;24.25;16.50;;;;;;;;5090220;27;45456;-92
2022/04/01 13:43:36;;;;;;;;;20.75;17.75;;;;;;;;5095618;27;45540;-92
2022/04/01 13:46:01;;;;;;;;;22.00;19.25;;;;;;;;5093096;27;47983;-92
2022/04/01 13:48:26;;;;;;;;;20.75;15.50;;;;;;;;5093543;27;45367;-95
2022/04/01 13:50:53;;;;;;;;;18.75;16.00;;;;;;;;5093857;27;45392;-92
2022/04/01 13:53:19;;;;;;;;;21.75;18.25;;;;;;;;5093707;27;45346;-91
2022/04/01 13:55:44;;;;;;;;;15.75;14.00;;;;;;;;5094817;27;47197;-94
2022/04/01 13:58:10;;;;;;;;;21.00;17.00;;;;;;;;5096350;27;45413;-91
2022/04/01 14:00:35;;;;;;;;;20.50;20.50;;;;;;;;5096046;27;45748;-91
2022/04/01 14:03:00;;;;;;;;;20.25;17.25;;;;;;;;5095296;27;45504;-91
2022/04/01 14:05:25;;;;;;;;;20.00;17.50;;;;;;;;5096061;27;48352;-91
2022/04/01 14:07:51;;;;;;;;;20.25;20.25;;;;;;;;5102836;27;45356;-91
2022/04/01 14:10:16;;;;;;;;;24.75;19.50;;;;;;;;5099687;27;45470;-91
2022/04/01 14:12:41;;;;;;;;;20.50;19.00;;;;;;;;5099676;27;45421;-91
2022/04/01 14:15:07;;;;;;;;;22.25;20.00;;;;;;;;5098417;27;47704;-90
2022/04/01 14:17:33;;;;;;;;;18.25;18.25;;;;;;;;5100176;27;45507;-90
2022/04/01 14:20:00;;;;;;;;;20.00;20.00;;;;;;;;5100677;27;45393;-91
2022/04/01 14:22:28;;;;;;;;;23.75;19.25;;;;;;;;5103438;27;45243;-91
2022/04/01 14:24:53;;;;;;;;;20.25;18.75;;;;;;;;5103088;27;47224;-91
2022/04/01 14:27:21;;;;;;;;;21.50;19.75;;;;;;;;5101924;27;45604;-92
2022/04/01 14:32:30;;;;;;;;;17.00;17.00;;;;;;;;5098085;27;45369;-92
2022/04/01 14:34:59;;;;;;;;;20.25;18.25;;;;;;;;5097843;27;47084;-93
2022/04/01 14:37:25;;;;;;;;;23.00;20.50;;;;;;;;5098866;27;45876;-92
2022/04/01 14:39:52;;;;;;;;;16.25;16.00;;;;;;;;5083765;27;45476;-91
2022/04/01 14:42:17;;;;;;;;;26.75;23.75;;;;;;;;5087982;27;45334;-88
2022/04/01 14:44:43;;;;;;;;;26.75;22.50;;;;;;;;5097756;27;45487;-89
2022/04/01 14:47:09;;;;;;;;;19.50;18.00;;;;;;;;5099124;27;45346;-88
2022/04/01 14:49:36;;;;;;;;;21.25;16.00;;;;;;;;5093148;27;47462;-88